Sapucaia do Sul, Brazil
Current Conditions -  °F | °C
As of 9:00 AM on Monday 22 Dec 2014 (Local Time) from SBCO Reporting Station
Broken Clouds Broken Clouds  
Wind Chill: 68°   Ceiling: 2000
Heat Index: 68°   Visibility: 6mi
Dew Point: 63°   Wind: 12mph
Humidity: 83%   Direction: 250°WSW
Pressure: 29.94"   Gusts: NA
Location:  29.82°S, 51.15°W
Report Text: SBCO 221100Z 25010KT 9999 BKN020 BKN035 20/17 Q1014
Loading
Personal Weather Stations






























Interactive Weather Map New forecast layout! Learn more

10-Day Weather Forecast

Advertisements
Track Severe Weather on mobile